createdAt,value
2023-03-17T00:03:26.549Z,51.40
2023-03-17T00:13:33.754Z,46.10
2023-03-17T00:23:36.858Z,47.30
2023-03-17T00:33:40.732Z,45.50
2023-03-17T00:43:44.241Z,50.10
2023-03-17T00:53:48.142Z,66.90
2023-03-17T01:03:51.398Z,58.00
2023-03-17T01:13:55.169Z,52.90
2023-03-17T01:23:58.565Z,48.00
2023-03-17T01:34:02.826Z,44.70
2023-03-17T01:44:07.494Z,54.20
2023-03-17T01:54:27.335Z,46.50
2023-03-17T02:04:31.611Z,43.50
2023-03-17T02:14:34.859Z,50.40
2023-03-17T02:24:52.932Z,47.70
2023-03-17T02:34:56.172Z,38.00
2023-03-17T02:45:00.531Z,52.50
2023-03-17T02:55:04.026Z,35.10
2023-03-17T03:05:08.904Z,39.00
2023-03-17T03:15:12.230Z,40.50
2023-03-17T03:25:16.445Z,41.10
2023-03-17T03:35:20.000Z,44.10
2023-03-17T03:45:23.816Z,50.50
2023-03-17T03:55:27.176Z,46.70
2023-03-17T04:05:31.452Z,35.70
2023-03-17T04:15:35.524Z,41.60
2023-03-17T04:25:39.289Z,35.10
2023-03-17T04:35:42.564Z,33.90
2023-03-17T04:45:45.984Z,36.90
2023-03-17T04:55:49.082Z,34.50
2023-03-17T05:05:52.517Z,39.20
2023-03-17T05:15:56.536Z,37.90
2023-03-17T05:26:00.885Z,36.00
2023-03-17T05:36:05.553Z,35.50
2023-03-17T05:46:09.580Z,35.90
2023-03-17T05:56:13.562Z,28.20
2023-03-17T06:06:16.774Z,34.20
2023-03-17T06:16:20.139Z,38.10
2023-03-17T06:26:23.365Z,37.50
2023-03-17T06:36:27.094Z,40.20
2023-03-17T06:46:31.659Z,32.80
2023-03-17T06:56:36.076Z,36.10
2023-03-17T07:06:39.363Z,34.40
2023-03-17T07:16:43.483Z,28.70
2023-03-17T07:26:46.762Z,29.80
2023-03-17T07:36:50.315Z,33.60
2023-03-17T07:46:53.808Z,31.90
2023-03-17T07:56:57.129Z,26.70
2023-03-17T08:07:01.728Z,28.60
2023-03-17T08:17:05.272Z,24.70
2023-03-17T08:27:08.903Z,22.00
2023-03-17T08:37:12.454Z,18.80
2023-03-17T08:47:15.703Z,16.70
2023-03-17T08:57:20.086Z,14.50
2023-03-17T09:07:23.223Z,9.60
2023-03-17T09:17:26.806Z,8.60
2023-03-17T09:27:29.929Z,11.00
2023-03-17T09:37:35.723Z,10.00
2023-03-17T09:48:11.363Z,6.80
2023-03-17T09:58:14.619Z,9.20
2023-03-17T10:08:44.384Z,7.50
2023-03-17T10:18:56.741Z,8.00
2023-03-17T10:29:04.635Z,10.20
2023-03-17T10:39:14.695Z,8.70
2023-03-17T10:49:18.305Z,7.70
2023-03-17T11:09:36.370Z,5.20
2023-03-17T11:19:52.124Z,5.60
2023-03-17T11:30:34.790Z,8.20
2023-03-17T11:41:14.625Z,6.40
2023-03-17T11:51:32.816Z,7.00
2023-03-17T12:01:54.940Z,6.70
2023-03-17T12:12:00.562Z,8.80
2023-03-17T12:22:11.684Z,7.50
2023-03-17T12:32:29.606Z,6.40
2023-03-17T12:42:52.673Z,7.10
2023-03-17T12:53:24.677Z,9.10
2023-03-17T13:03:38.681Z,6.40
2023-03-17T13:13:59.395Z,6.60
2023-03-17T13:24:35.030Z,8.90
2023-03-17T13:34:46.770Z,7.50
2023-03-17T13:45:08.548Z,7.50
2023-03-17T13:55:17.619Z,5.90
2023-03-17T14:05:27.475Z,5.80
2023-03-17T14:15:46.474Z,5.70
2023-03-17T14:25:50.961Z,6.20
2023-03-17T14:35:58.297Z,5.10
2023-03-17T14:46:04.344Z,4.20
2023-03-17T14:56:07.882Z,6.60
2023-03-17T15:06:30.893Z,6.80
2023-03-17T15:16:49.661Z,5.00
2023-03-17T15:27:07.307Z,5.00
2023-03-17T15:37:32.175Z,6.70
2023-03-17T15:47:39.933Z,5.40
2023-03-17T15:57:50.770Z,5.90
2023-03-17T16:07:58.117Z,6.40
2023-03-17T16:18:05.571Z,9.70
2023-03-17T16:28:17.788Z,13.00
2023-03-17T16:38:26.237Z,20.40
2023-03-17T16:48:29.828Z,25.40
2023-03-17T16:58:36.973Z,47.10
2023-03-17T17:08:42.064Z,51.20
2023-03-17T17:18:45.328Z,54.80
2023-03-17T17:28:48.676Z,68.70
2023-03-17T17:38:52.149Z,60.70
2023-03-17T17:48:56.322Z,93.30
2023-03-17T17:58:59.529Z,94.70
2023-03-17T18:09:07.500Z,75.10
2023-03-17T18:19:13.446Z,56.10
2023-03-17T18:29:17.123Z,55.20
2023-03-17T18:39:20.254Z,88.00
2023-03-17T18:49:25.480Z,90.00
2023-03-17T18:59:28.634Z,70.60
2023-03-17T19:09:31.884Z,70.00
2023-03-17T19:19:36.942Z,76.20
2023-03-17T19:29:40.023Z,76.10
2023-03-17T19:39:46.154Z,76.40
2023-03-17T19:49:49.275Z,68.20
2023-03-17T19:59:54.234Z,72.90
2023-03-17T20:09:57.361Z,67.20
2023-03-17T20:20:01.465Z,65.30
2023-03-17T20:30:07.443Z,74.40
2023-03-17T20:40:11.357Z,71.80
2023-03-17T20:50:15.093Z,93.80
2023-03-17T21:00:22.295Z,80.80
2023-03-17T21:10:25.579Z,70.70
2023-03-17T21:20:29.630Z,68.90
2023-03-17T21:30:34.380Z,71.70
2023-03-17T21:40:37.616Z,64.30
2023-03-17T21:50:40.880Z,64.00
2023-03-17T22:00:45.769Z,58.90
2023-03-17T22:10:49.530Z,58.80
2023-03-17T22:20:57.624Z,57.80
2023-03-17T22:31:02.092Z,55.20
2023-03-17T22:41:11.558Z,51.10
2023-03-17T22:51:19.084Z,49.20
2023-03-17T23:01:25.904Z,44.50
2023-03-17T23:11:29.112Z,43.20
2023-03-17T23:21:36.366Z,43.00
2023-03-17T23:31:40.135Z,35.30
2023-03-17T23:41:43.177Z,44.70
2023-03-17T23:51:49.410Z,43.10
